createdAt,value
2018-12-15T00:00:08.263Z,2.30
2018-12-15T00:02:37.000Z,2.30
2018-12-15T00:05:07.067Z,2.30
2018-12-15T00:07:35.683Z,2.30
2018-12-15T00:10:04.843Z,2.30
2018-12-15T00:12:33.434Z,2.40
2018-12-15T00:15:02.048Z,2.30
2018-12-15T00:17:31.430Z,2.30
2018-12-15T00:20:00.237Z,2.30
2018-12-15T00:22:28.923Z,2.30
2018-12-15T00:24:57.526Z,2.30
2018-12-15T00:27:26.201Z,2.30
2018-12-15T00:29:54.769Z,2.30
2018-12-15T00:32:23.339Z,2.30
2018-12-15T00:34:52.288Z,2.30
2018-12-15T00:37:20.860Z,2.40
2018-12-15T00:39:49.367Z,2.40
2018-12-15T00:42:18.005Z,2.40
2018-12-15T00:44:46.618Z,2.30
2018-12-15T00:47:15.176Z,2.30
2018-12-15T00:49:43.805Z,2.30
2018-12-15T00:52:12.419Z,2.30
2018-12-15T00:54:41.228Z,2.30
2018-12-15T00:57:10.103Z,2.30
2018-12-15T00:59:38.709Z,2.30
2018-12-15T01:02:07.786Z,2.30
2018-12-15T01:04:36.514Z,2.40
2018-12-15T01:07:05.558Z,2.40
2018-12-15T01:09:34.074Z,2.30
2018-12-15T01:12:02.620Z,2.30
2018-12-15T01:14:31.213Z,2.40
2018-12-15T01:17:00.019Z,2.40
2018-12-15T01:19:28.531Z,2.30
2018-12-15T01:21:57.500Z,2.30
2018-12-15T01:24:26.043Z,2.30
2018-12-15T01:26:54.696Z,2.40
2018-12-15T01:29:23.572Z,2.30
2018-12-15T01:31:52.308Z,2.30
2018-12-15T01:34:20.941Z,2.30
2018-12-15T01:36:49.548Z,2.30
2018-12-15T01:39:19.652Z,2.30
2018-12-15T01:41:48.318Z,2.30
2018-12-15T01:44:17.647Z,2.30
2018-12-15T01:46:46.594Z,2.30
2018-12-15T01:49:15.206Z,2.30
2018-12-15T01:51:43.750Z,2.30
2018-12-15T01:54:12.340Z,2.30
2018-12-15T01:56:41.425Z,2.30
2018-12-15T01:59:09.982Z,2.30
2018-12-15T02:01:38.790Z,2.30
2018-12-15T02:04:08.206Z,2.30
2018-12-15T02:06:37.187Z,2.30
2018-12-15T02:09:06.273Z,2.30
2018-12-15T02:11:34.926Z,2.30
2018-12-15T02:14:04.278Z,2.30
2018-12-15T02:16:33.184Z,2.30
2018-12-15T02:19:02.424Z,2.30
2018-12-15T02:21:31.547Z,2.20
2018-12-15T02:24:00.199Z,2.20
2018-12-15T02:26:28.779Z,2.20
2018-12-15T02:28:57.404Z,2.20
2018-12-15T02:31:26.216Z,2.20
2018-12-15T02:33:54.829Z,2.20
2018-12-15T02:36:23.691Z,2.20
2018-12-15T02:38:53.035Z,2.20
2018-12-15T02:41:21.606Z,2.20
2018-12-15T02:43:50.218Z,2.20
2018-12-15T02:46:18.743Z,2.20
2018-12-15T02:48:48.314Z,2.20
2018-12-15T02:51:16.915Z,2.20
2018-12-15T02:53:45.548Z,2.20
2018-12-15T02:56:14.854Z,2.20
2018-12-15T02:58:43.548Z,2.10
2018-12-15T03:01:12.131Z,2.10
2018-12-15T03:03:41.054Z,2.10
2018-12-15T03:06:09.701Z,2.10
2018-12-15T03:08:38.267Z,2.10
2018-12-15T03:11:06.860Z,2.00
2018-12-15T03:13:35.475Z,2.00
2018-12-15T03:16:04.655Z,2.00
2018-12-15T03:18:33.285Z,2.00
2018-12-15T03:21:03.108Z,1.90
2018-12-15T03:23:31.739Z,1.90
2018-12-15T03:26:01.145Z,1.90
2018-12-15T03:28:29.650Z,1.80
2018-12-15T03:30:58.838Z,1.80
2018-12-15T03:33:27.428Z,1.70
2018-12-15T03:35:56.223Z,1.70
2018-12-15T03:38:24.868Z,1.60
2018-12-15T03:40:53.469Z,1.50
2018-12-15T03:43:22.058Z,1.50
2018-12-15T03:45:50.789Z,1.50
2018-12-15T03:48:19.309Z,1.50
2018-12-15T03:50:47.868Z,1.40
2018-12-15T03:53:16.414Z,1.40
2018-12-15T03:55:44.988Z,1.50
2018-12-15T03:58:14.012Z,1.40
2018-12-15T04:00:42.635Z,1.40
2018-12-15T04:03:11.270Z,1.40
2018-12-15T04:05:39.830Z,1.40
2018-12-15T04:08:09.244Z,1.40
2018-12-15T04:10:37.847Z,1.30
2018-12-15T04:13:06.400Z,1.30
2018-12-15T04:15:34.951Z,1.30
2018-12-15T04:18:03.898Z,1.20
2018-12-15T04:20:32.667Z,1.20
2018-12-15T04:23:01.254Z,1.10
2018-12-15T04:25:29.850Z,1.10
2018-12-15T04:27:58.540Z,1.10
2018-12-15T04:30:27.834Z,1.10
2018-12-15T04:32:56.547Z,1.10
2018-12-15T04:35:25.196Z,1.10
2018-12-15T04:37:53.767Z,1.10
2018-12-15T04:40:22.503Z,1.10
2018-12-15T04:42:52.171Z,1.10
2018-12-15T04:45:20.914Z,1.00
2018-12-15T04:47:49.504Z,1.10
2018-12-15T04:50:18.265Z,1.00
2018-12-15T04:52:46.932Z,1.00
2018-12-15T04:55:16.288Z,1.00
2018-12-15T04:57:44.850Z,1.00
2018-12-15T05:00:13.435Z,1.00
2018-12-15T05:02:44.070Z,0.90
2018-12-15T05:05:12.712Z,0.90
2018-12-15T05:07:41.493Z,1.00
2018-12-15T05:10:10.064Z,1.00
2018-12-15T05:12:38.656Z,1.00
2018-12-15T05:15:07.565Z,1.00
2018-12-15T05:17:36.357Z,1.00
2018-12-15T05:20:05.597Z,1.00
2018-12-15T05:22:34.236Z,1.10
2018-12-15T05:25:03.130Z,1.10
2018-12-15T05:27:32.303Z,1.00
2018-12-15T05:30:00.851Z,1.00
2018-12-15T05:32:30.322Z,1.00
2018-12-15T05:34:58.853Z,0.90
2018-12-15T05:37:27.460Z,0.90
2018-12-15T05:39:56.109Z,0.90
2018-12-15T05:42:24.693Z,0.80
2018-12-15T05:44:53.274Z,0.80
2018-12-15T05:47:22.963Z,0.70
2018-12-15T05:49:51.618Z,0.60
2018-12-15T05:52:20.300Z,0.60
2018-12-15T05:54:48.897Z,0.50
2018-12-15T05:57:17.559Z,0.50
2018-12-15T05:59:46.211Z,0.50
2018-12-15T06:02:16.534Z,0.40
2018-12-15T06:04:45.741Z,0.40
2018-12-15T06:07:16.330Z,0.40
2018-12-15T06:09:45.026Z,0.30
2018-12-15T06:12:13.721Z,0.40
2018-12-15T06:14:42.846Z,0.30
2018-12-15T06:17:11.442Z,0.30
2018-12-15T06:19:40.542Z,0.30
2018-12-15T06:22:09.150Z,0.30
2018-12-15T06:24:37.829Z,0.30
2018-12-15T06:27:06.922Z,0.20
2018-12-15T06:29:35.603Z,0.20
2018-12-15T06:32:04.999Z,0.20
2018-12-15T06:34:33.571Z,0.10
2018-12-15T06:37:02.251Z,0.10
2018-12-15T06:39:31.087Z,0.10
2018-12-15T06:41:59.881Z,0.10
2018-12-15T06:44:28.450Z,0.00
2018-12-15T06:46:57.021Z,0.00
2018-12-15T06:49:26.853Z,0.00
2018-12-15T06:51:55.479Z,0.00
2018-12-15T06:54:24.029Z,0.00
2018-12-15T06:56:53.667Z,0.00
2018-12-15T06:59:22.506Z,0.00
2018-12-15T07:01:51.131Z,-0.10
2018-12-15T07:04:19.737Z,0.00
2018-12-15T07:06:48.392Z,0.00
2018-12-15T07:09:17.088Z,0.00
2018-12-15T07:11:45.862Z,0.00
2018-12-15T07:14:14.416Z,0.00
2018-12-15T07:16:43.239Z,0.00
2018-12-15T07:19:11.820Z,0.00
2018-12-15T07:21:41.491Z,-0.10
2018-12-15T07:24:10.844Z,-0.10
2018-12-15T07:26:39.490Z,0.00
2018-12-15T07:29:09.598Z,0.00
2018-12-15T07:31:38.304Z,0.00
2018-12-15T07:34:06.919Z,0.00
2018-12-15T07:36:35.602Z,0.10
2018-12-15T07:39:06.638Z,0.10
2018-12-15T07:41:36.163Z,0.10
2018-12-15T07:44:04.922Z,0.10
2018-12-15T07:46:33.887Z,0.10
2018-12-15T07:49:02.763Z,0.10
2018-12-15T07:51:31.709Z,0.10
2018-12-15T07:54:00.256Z,0.10
2018-12-15T07:56:28.865Z,0.10
2018-12-15T07:58:57.531Z,0.10
2018-12-15T08:01:26.147Z,0.10
2018-12-15T08:03:54.787Z,0.10
2018-12-15T08:06:23.550Z,0.10
2018-12-15T08:08:52.216Z,0.10
2018-12-15T08:11:26.294Z,0.10
2018-12-15T08:14:03.893Z,0.10
2018-12-15T08:16:33.109Z,0.10
2018-12-15T08:19:02.032Z,0.10
2018-12-15T08:21:31.451Z,0.10
2018-12-15T08:24:00.190Z,0.10
2018-12-15T08:26:29.858Z,0.10
2018-12-15T08:28:58.673Z,0.10
2018-12-15T08:31:27.883Z,0.20
2018-12-15T08:33:57.042Z,0.20
2018-12-15T08:36:26.688Z,0.20
2018-12-15T08:38:55.429Z,0.20
2018-12-15T08:41:24.022Z,0.30
2018-12-15T08:43:52.702Z,0.30
2018-12-15T08:46:21.689Z,0.30
2018-12-15T08:48:51.224Z,0.30
2018-12-15T08:51:20.356Z,0.30
2018-12-15T08:53:49.000Z,0.40
2018-12-15T08:56:17.628Z,0.40
2018-12-15T08:58:47.429Z,0.40
2018-12-15T09:01:16.116Z,0.40
2018-12-15T09:03:45.526Z,0.40
2018-12-15T09:06:14.146Z,0.40
2018-12-15T09:08:43.343Z,0.40
2018-12-15T09:11:12.081Z,0.50
2018-12-15T09:13:41.376Z,0.50
2018-12-15T09:16:10.189Z,0.60
2018-12-15T09:18:39.366Z,0.60
2018-12-15T09:21:08.492Z,0.60
2018-12-15T09:23:37.514Z,0.70
2018-12-15T09:26:09.318Z,0.80
2018-12-15T09:28:38.975Z,0.80
2018-12-15T09:31:07.885Z,1.00
2018-12-15T09:33:36.656Z,1.00
2018-12-15T09:36:05.246Z,1.10
2018-12-15T09:38:34.150Z,1.10
2018-12-15T09:41:02.719Z,1.20
2018-12-15T09:43:31.411Z,1.20
2018-12-15T09:45:59.926Z,1.30
2018-12-15T09:48:28.631Z,1.40
2018-12-15T09:50:57.223Z,1.40
2018-12-15T09:53:26.648Z,1.50
2018-12-15T09:55:55.420Z,1.60
2018-12-15T09:58:24.182Z,1.70
2018-12-15T10:00:53.189Z,1.80
2018-12-15T10:03:21.914Z,1.90
2018-12-15T10:05:50.498Z,1.90
2018-12-15T10:08:19.086Z,2.00
2018-12-15T10:10:48.555Z,2.10
2018-12-15T10:13:17.464Z,2.20
2018-12-15T10:15:46.272Z,2.30
2018-12-15T10:18:15.784Z,2.30
2018-12-15T10:20:45.368Z,2.20
2018-12-15T10:23:14.306Z,2.30
2018-12-15T10:25:43.122Z,2.30
2018-12-15T10:28:11.789Z,2.40
2018-12-15T10:30:45.657Z,2.40
2018-12-15T10:33:14.487Z,2.40
2018-12-15T10:35:43.251Z,2.50
2018-12-15T10:38:12.479Z,2.50
2018-12-15T10:40:42.248Z,2.50
2018-12-15T10:43:10.826Z,2.50
2018-12-15T10:45:40.767Z,2.60
2018-12-15T10:48:09.376Z,2.60
2018-12-15T10:50:39.373Z,2.60
2018-12-15T10:53:08.932Z,2.70
2018-12-15T10:55:37.627Z,2.70
2018-12-15T10:58:06.268Z,2.80
2018-12-15T11:00:40.342Z,2.80
2018-12-15T11:03:09.068Z,2.90
2018-12-15T11:05:37.659Z,2.90
2018-12-15T11:08:06.496Z,3.00
2018-12-15T11:10:36.538Z,3.00
2018-12-15T11:13:07.119Z,3.00
2018-12-15T11:15:35.847Z,3.00
2018-12-15T11:18:04.908Z,3.10
2018-12-15T11:20:33.796Z,3.10
2018-12-15T11:23:02.516Z,3.10
2018-12-15T11:25:31.917Z,3.20
2018-12-15T11:28:01.487Z,3.20
2018-12-15T11:30:30.258Z,3.30
2018-12-15T11:32:58.916Z,3.30
2018-12-15T11:35:27.707Z,3.20
2018-12-15T11:37:56.698Z,3.20
2018-12-15T11:40:25.276Z,3.10
2018-12-15T11:42:54.037Z,3.00
2018-12-15T11:45:24.080Z,3.00
2018-12-15T11:47:53.809Z,2.90
2018-12-15T11:50:22.595Z,2.70
2018-12-15T11:52:54.306Z,2.70
2018-12-15T11:55:23.669Z,2.80
2018-12-15T11:57:52.424Z,2.70
2018-12-15T12:00:21.012Z,2.70
2018-12-15T12:02:50.031Z,2.80
2018-12-15T12:05:18.810Z,2.90
2018-12-15T12:07:48.446Z,2.80
2018-12-15T12:10:17.413Z,2.70
2018-12-15T12:12:46.589Z,2.70
2018-12-15T12:15:15.208Z,2.70
2018-12-15T12:17:44.791Z,2.60
2018-12-15T12:20:13.565Z,2.60
2018-12-15T12:22:42.378Z,2.60
2018-12-15T12:25:11.483Z,2.50
2018-12-15T12:27:40.386Z,2.50
2018-12-15T12:30:09.542Z,2.60
2018-12-15T12:32:38.133Z,2.60
2018-12-15T12:35:07.510Z,2.60
2018-12-15T12:37:37.232Z,2.60
2018-12-15T12:40:06.148Z,2.60
2018-12-15T12:42:34.912Z,2.60
2018-12-15T12:45:03.792Z,2.60
2018-12-15T12:47:32.396Z,2.50
2018-12-15T12:50:01.074Z,2.30
2018-12-15T12:52:30.064Z,2.30
2018-12-15T12:54:58.833Z,2.30
2018-12-15T12:57:28.388Z,2.30
2018-12-15T12:59:57.058Z,2.20
2018-12-15T13:02:28.453Z,2.20
2018-12-15T13:04:57.128Z,2.10
2018-12-15T13:07:25.856Z,2.10
2018-12-15T13:09:54.601Z,2.10
2018-12-15T13:12:23.347Z,2.10
2018-12-15T13:14:57.735Z,2.10
2018-12-15T13:17:32.106Z,2.20
2018-12-15T13:20:03.846Z,2.20
2018-12-15T13:22:32.855Z,2.30
2018-12-15T13:25:05.832Z,2.30
2018-12-15T13:27:35.108Z,2.40
2018-12-15T13:30:04.468Z,2.40
2018-12-15T13:32:34.886Z,2.40
2018-12-15T13:35:03.832Z,2.40
2018-12-15T13:37:32.611Z,2.30
2018-12-15T13:40:02.644Z,2.30
2018-12-15T13:42:32.312Z,2.20
2018-12-15T13:45:01.158Z,2.10
2018-12-15T13:47:29.989Z,2.10
2018-12-15T13:49:59.441Z,2.10
2018-12-15T13:52:28.943Z,2.10
2018-12-15T13:54:59.055Z,2.00
2018-12-15T13:57:27.743Z,2.00
2018-12-15T13:59:56.959Z,2.00
2018-12-15T14:02:25.820Z,2.00
2018-12-15T14:04:54.971Z,2.10
2018-12-15T14:07:23.631Z,2.10
2018-12-15T14:09:52.297Z,2.00
2018-12-15T14:12:21.560Z,2.00
2018-12-15T14:14:50.383Z,2.10
2018-12-15T14:17:20.292Z,2.00
2018-12-15T14:19:48.981Z,2.10
2018-12-15T14:22:17.855Z,2.10
2018-12-15T14:24:47.378Z,2.00
2018-12-15T14:27:15.940Z,2.10
2018-12-15T14:29:45.690Z,2.10
2018-12-15T14:32:14.656Z,2.10
2018-12-15T14:34:43.296Z,2.20
2018-12-15T14:37:12.369Z,2.10
2018-12-15T14:39:41.369Z,2.10
2018-12-15T14:42:10.402Z,2.00
2018-12-15T14:44:39.776Z,2.00
2018-12-15T14:47:08.932Z,2.00
2018-12-15T14:49:37.534Z,2.00
2018-12-15T14:52:06.190Z,1.90
2018-12-15T14:54:34.817Z,2.00
2018-12-15T14:57:03.408Z,1.90
2018-12-15T14:59:31.992Z,1.90
2018-12-15T15:02:00.623Z,1.90
2018-12-15T15:04:30.908Z,1.90
2018-12-15T15:06:59.858Z,1.90
2018-12-15T15:09:29.625Z,1.90
2018-12-15T15:11:58.918Z,1.90
2018-12-15T15:14:28.615Z,1.90
2018-12-15T15:16:57.221Z,1.90
2018-12-15T15:19:25.970Z,1.90
2018-12-15T15:21:54.633Z,1.90
2018-12-15T15:24:23.446Z,1.80
2018-12-15T15:26:52.853Z,1.80
2018-12-15T15:29:22.333Z,1.80
2018-12-15T15:31:50.955Z,1.80
2018-12-15T15:34:19.540Z,1.70
2018-12-15T15:36:48.291Z,1.70
2018-12-15T15:39:17.517Z,1.70
2018-12-15T15:41:52.547Z,1.70
2018-12-15T15:44:21.367Z,1.70
2018-12-15T15:46:50.021Z,1.80
2018-12-15T15:49:18.714Z,1.80
2018-12-15T15:51:47.357Z,1.70
2018-12-15T15:54:16.030Z,1.80
2018-12-15T15:56:44.745Z,1.80
2018-12-15T15:59:13.856Z,1.70
2018-12-15T16:01:43.689Z,1.70
2018-12-15T16:04:12.317Z,1.70
2018-12-15T16:06:40.947Z,1.70
2018-12-15T16:09:10.205Z,1.80
2018-12-15T16:11:39.077Z,1.70
2018-12-15T16:14:07.721Z,1.70
2018-12-15T16:16:36.624Z,1.70
2018-12-15T16:19:08.957Z,1.70
2018-12-15T16:21:37.820Z,1.70
2018-12-15T16:24:06.655Z,1.70
2018-12-15T16:26:35.307Z,1.70
2018-12-15T16:29:04.051Z,1.70
2018-12-15T16:31:34.000Z,1.70
2018-12-15T16:34:02.838Z,1.70
2018-12-15T16:36:32.623Z,1.70
2018-12-15T16:39:01.620Z,1.70
2018-12-15T16:41:30.822Z,1.70
2018-12-15T16:44:00.821Z,1.60
2018-12-15T16:46:29.744Z,1.60
2018-12-15T16:48:58.407Z,1.60
2018-12-15T16:51:27.003Z,1.60
2018-12-15T16:53:56.050Z,1.60
2018-12-15T16:56:24.997Z,1.60
2018-12-15T16:58:54.143Z,1.60
2018-12-15T17:01:22.999Z,1.60
2018-12-15T17:03:52.195Z,1.50
2018-12-15T17:06:20.871Z,1.50
2018-12-15T17:08:49.523Z,1.50
2018-12-15T17:11:18.332Z,1.50
2018-12-15T17:13:47.311Z,1.40
2018-12-15T17:16:16.652Z,1.40
2018-12-15T17:18:45.256Z,1.40
2018-12-15T17:21:13.941Z,1.40
2018-12-15T17:23:43.376Z,1.30
2018-12-15T17:26:11.969Z,1.30
2018-12-15T17:28:40.523Z,1.30
2018-12-15T17:31:09.111Z,1.30
2018-12-15T17:33:37.816Z,1.30
2018-12-15T17:36:06.528Z,1.30
2018-12-15T17:38:35.250Z,1.30
2018-12-15T17:41:04.010Z,1.30
2018-12-15T17:43:32.627Z,1.30
2018-12-15T17:46:01.302Z,1.20
2018-12-15T17:48:29.941Z,1.30
2018-12-15T17:51:03.224Z,1.20
2018-12-15T17:53:35.236Z,1.30
2018-12-15T17:56:03.995Z,1.30
2018-12-15T17:58:32.652Z,1.30
2018-12-15T18:01:01.254Z,1.30
2018-12-15T18:03:30.324Z,1.30
2018-12-15T18:05:59.813Z,1.30
2018-12-15T18:08:29.603Z,1.30
2018-12-15T18:10:58.787Z,1.30
2018-12-15T18:13:28.453Z,1.30
2018-12-15T18:15:59.047Z,1.30
2018-12-15T18:18:27.624Z,1.30
2018-12-15T18:20:56.512Z,1.30
2018-12-15T18:23:25.167Z,1.30
2018-12-15T18:25:53.815Z,1.30
2018-12-15T18:28:23.356Z,1.30
2018-12-15T18:30:53.163Z,1.30
2018-12-15T18:33:21.950Z,1.30
2018-12-15T18:35:50.983Z,1.40
2018-12-15T18:38:20.398Z,1.40
2018-12-15T18:40:49.013Z,1.40
2018-12-15T18:43:18.270Z,1.40
2018-12-15T18:45:47.387Z,1.40
2018-12-15T18:48:15.960Z,1.40
2018-12-15T18:50:45.162Z,1.40
2018-12-15T18:53:13.795Z,1.30
2018-12-15T18:55:42.685Z,1.40
2018-12-15T18:58:12.123Z,1.40
2018-12-15T19:00:40.757Z,1.40
2018-12-15T19:03:09.663Z,1.40
2018-12-15T19:05:38.303Z,1.40
2018-12-15T19:08:06.892Z,1.40
2018-12-15T19:10:36.102Z,1.30
2018-12-15T19:13:05.790Z,1.40
2018-12-15T19:15:34.323Z,1.40
2018-12-15T19:18:09.542Z,1.40
2018-12-15T19:20:38.251Z,1.40
2018-12-15T19:23:06.870Z,1.40
2018-12-15T19:25:35.906Z,1.40
2018-12-15T19:28:05.289Z,1.40
2018-12-15T19:30:33.873Z,1.40
2018-12-15T19:33:02.396Z,1.40
2018-12-15T19:35:31.006Z,1.40
2018-12-15T19:37:59.666Z,1.40
2018-12-15T19:40:30.048Z,1.40
2018-12-15T19:42:59.223Z,1.40
2018-12-15T19:45:28.174Z,1.40
2018-12-15T19:47:56.995Z,1.40
2018-12-15T19:50:25.592Z,1.40
2018-12-15T19:52:54.266Z,1.40
2018-12-15T19:55:23.049Z,1.40
2018-12-15T19:57:52.256Z,1.40
2018-12-15T20:00:20.906Z,1.40
2018-12-15T20:02:49.559Z,1.40
2018-12-15T20:05:20.601Z,1.40
2018-12-15T20:07:49.208Z,1.40
2018-12-15T20:10:17.981Z,1.40
2018-12-15T20:12:48.193Z,1.40
2018-12-15T20:15:16.751Z,1.40
2018-12-15T20:17:45.609Z,1.30
2018-12-15T20:20:15.910Z,1.40
2018-12-15T20:22:44.509Z,1.40
2018-12-15T20:25:13.135Z,1.40
2018-12-15T20:27:41.733Z,1.40
2018-12-15T20:30:10.513Z,1.40
2018-12-15T20:32:39.112Z,1.50
2018-12-15T20:35:07.856Z,1.40
2018-12-15T20:37:36.382Z,1.50
2018-12-15T20:40:07.390Z,1.50
2018-12-15T20:42:36.602Z,1.50
2018-12-15T20:45:07.103Z,1.50
2018-12-15T20:47:35.722Z,1.50
2018-12-15T20:50:05.747Z,1.50
2018-12-15T20:52:34.355Z,1.50
2018-12-15T20:55:03.549Z,1.60
2018-12-15T20:57:33.051Z,1.50
2018-12-15T21:00:02.856Z,1.60
2018-12-15T21:02:31.394Z,1.50
2018-12-15T21:05:00.312Z,1.50
2018-12-15T21:07:28.951Z,1.50
2018-12-15T21:09:57.493Z,1.50
2018-12-15T21:12:26.709Z,1.50
2018-12-15T21:14:57.250Z,1.50
2018-12-15T21:17:25.841Z,1.50
2018-12-15T21:19:54.444Z,1.50
2018-12-15T21:22:23.024Z,1.50
2018-12-15T21:24:51.619Z,1.50
2018-12-15T21:27:20.723Z,1.50
2018-12-15T21:29:49.352Z,1.50
2018-12-15T21:32:18.432Z,1.50
2018-12-15T21:34:47.882Z,1.60
2018-12-15T21:37:16.661Z,1.60
2018-12-15T21:39:46.376Z,1.60
2018-12-15T21:42:15.082Z,1.50
2018-12-15T21:44:43.723Z,1.50
2018-12-15T21:47:13.331Z,1.60
2018-12-15T21:49:42.148Z,1.60
2018-12-15T21:52:11.908Z,1.60
2018-12-15T21:54:40.533Z,1.60
2018-12-15T21:57:09.189Z,1.60
2018-12-15T21:59:37.934Z,1.60
2018-12-15T22:02:06.546Z,1.60
2018-12-15T22:04:35.267Z,1.70
2018-12-15T22:07:03.861Z,1.70
2018-12-15T22:09:32.434Z,1.70
2018-12-15T22:12:01.746Z,1.70
2018-12-15T22:14:31.275Z,1.70
2018-12-15T22:17:00.010Z,1.70
2018-12-15T22:19:30.272Z,1.70
2018-12-15T22:22:02.960Z,1.70
2018-12-15T22:24:30.028Z,1.70
2018-12-15T22:26:59.429Z,1.70
2018-12-15T22:29:28.091Z,1.70
2018-12-15T22:31:57.217Z,1.70
2018-12-15T22:34:26.592Z,1.70
2018-12-15T22:36:55.280Z,1.70
2018-12-15T22:39:23.926Z,1.70
2018-12-15T22:41:52.528Z,1.70
2018-12-15T22:44:21.129Z,1.70
2018-12-15T22:46:49.885Z,1.80
2018-12-15T22:49:18.439Z,1.80
2018-12-15T22:51:47.469Z,1.80
2018-12-15T22:54:16.181Z,1.80
2018-12-15T22:56:44.921Z,1.80
2018-12-15T22:59:14.547Z,1.80
2018-12-15T23:01:46.799Z,1.80
2018-12-15T23:04:16.635Z,1.80
2018-12-15T23:06:45.519Z,1.80
2018-12-15T23:09:14.539Z,1.80
2018-12-15T23:11:43.326Z,1.80
2018-12-15T23:14:12.711Z,1.90
2018-12-15T23:16:41.766Z,1.90
2018-12-15T23:19:10.498Z,1.90
2018-12-15T23:21:39.083Z,1.90
2018-12-15T23:24:07.753Z,1.90
2018-12-15T23:26:37.386Z,1.90
2018-12-15T23:29:12.651Z,1.90
2018-12-15T23:31:41.264Z,1.90
2018-12-15T23:34:10.364Z,1.90
2018-12-15T23:36:39.684Z,1.90
2018-12-15T23:39:08.779Z,1.90
2018-12-15T23:41:37.870Z,1.90
2018-12-15T23:44:06.853Z,2.00
2018-12-15T23:46:35.554Z,2.00
2018-12-15T23:49:04.651Z,2.00
2018-12-15T23:51:33.305Z,2.00
2018-12-15T23:54:01.856Z,2.00
2018-12-15T23:56:32.475Z,2.00
2018-12-15T23:59:02.331Z,1.90
